sensor_id;sensor_type;location;lat;lon;timestamp;temperature;humidity
10083;DHT22;5080;48.528;8.078;2023-05-23T00:00:00;17.50;99.90
10083;DHT22;5080;48.528;8.078;2023-05-23T00:02:26;17.60;99.90
10083;DHT22;5080;48.528;8.078;2023-05-23T00:04:54;17.50;99.90
10083;DHT22;5080;48.528;8.078;2023-05-23T00:07:23;17.40;99.90
10083;DHT22;5080;48.528;8.078;2023-05-23T00:09:50;17.30;99.90
10083;DHT22;5080;48.528;8.078;2023-05-23T00:12:18;17.20;99.90
10083;DHT22;5080;48.528;8.078;2023-05-23T00:14:45;17.20;99.90
10083;DHT22;5080;48.528;8.078;2023-05-23T00:17:12;17.20;99.90
10083;DHT22;5080;48.528;8.078;2023-05-23T00:19:39;17.20;99.90
10083;DHT22;5080;48.528;8.078;2023-05-23T00:22:06;17.20;99.90
10083;DHT22;5080;48.528;8.078;2023-05-23T00:24:32;17.20;99.90
10083;DHT22;5080;48.528;8.078;2023-05-23T00:26:59;17.20;99.90
10083;DHT22;5080;48.528;8.078;2023-05-23T00:29:27;17.30;99.90
10083;DHT22;5080;48.528;8.078;2023-05-23T00:31:54;17.30;99.90
10083;DHT22;5080;48.528;8.078;2023-05-23T00:34:21;17.40;99.90
10083;DHT22;5080;48.528;8.078;2023-05-23T00:36:48;17.20;99.90
10083;DHT22;5080;48.528;8.078;2023-05-23T00:39:15;17.10;99.90
10083;DHT22;5080;48.528;8.078;2023-05-23T00:41:45;17.20;99.90
10083;DHT22;5080;48.528;8.078;2023-05-23T00:44:12;17.20;99.90
10083;DHT22;5080;48.528;8.078;2023-05-23T00:46:41;17.20;99.90
10083;DHT22;5080;48.528;8.078;2023-05-23T00:49:09;17.10;99.90
10083;DHT22;5080;48.528;8.078;2023-05-23T00:51:36;17.10;99.90
10083;DHT22;5080;48.528;8.078;2023-05-23T00:54:04;17.10;99.90
10083;DHT22;5080;48.528;8.078;2023-05-23T00:56:31;17.10;99.90
10083;DHT22;5080;48.528;8.078;2023-05-23T00:58:58;17.10;99.90
10083;DHT22;5080;48.528;8.078;2023-05-23T01:01:26;17.10;99.90
10083;DHT22;5080;48.528;8.078;2023-05-23T01:03:54;17.00;99.90
10083;DHT22;5080;48.528;8.078;2023-05-23T01:06:21;16.90;99.90
10083;DHT22;5080;48.528;8.078;2023-05-23T01:08:48;16.90;99.90
10083;DHT22;5080;48.528;8.078;2023-05-23T01:11:21;16.80;99.90
10083;DHT22;5080;48.528;8.078;2023-05-23T01:13:57;16.80;99.90
10083;DHT22;5080;48.528;8.078;2023-05-23T01:16:31;16.80;99.90
10083;DHT22;5080;48.528;8.078;2023-05-23T01:19:10;16.80;99.90
10083;DHT22;5080;48.528;8.078;2023-05-23T01:21:42;16.80;99.90
10083;DHT22;5080;48.528;8.078;2023-05-23T01:24:35;16.80;99.90
10083;DHT22;5080;48.528;8.078;2023-05-23T01:27:09;17.00;99.90
10083;DHT22;5080;48.528;8.078;2023-05-23T01:29:44;17.00;99.90
10083;DHT22;5080;48.528;8.078;2023-05-23T01:32:11;17.00;99.90
10083;DHT22;5080;48.528;8.078;2023-05-23T01:34:40;17.10;99.90
10083;DHT22;5080;48.528;8.078;2023-05-23T01:37:09;17.00;99.90
10083;DHT22;5080;48.528;8.078;2023-05-23T01:39:36;17.10;99.90
10083;DHT22;5080;48.528;8.078;2023-05-23T01:42:03;17.10;99.90
10083;DHT22;5080;48.528;8.078;2023-05-23T01:44:31;17.00;99.90
10083;DHT22;5080;48.528;8.078;2023-05-23T01:47:00;17.00;99.90
10083;DHT22;5080;48.528;8.078;2023-05-23T01:49:29;16.90;99.90
10083;DHT22;5080;48.528;8.078;2023-05-23T01:51:57;16.80;99.90
10083;DHT22;5080;48.528;8.078;2023-05-23T01:54:25;16.70;99.90
10083;DHT22;5080;48.528;8.078;2023-05-23T01:56:54;16.70;99.90
10083;DHT22;5080;48.528;8.078;2023-05-23T01:59:21;16.70;99.90
10083;DHT22;5080;48.528;8.078;2023-05-23T02:01:48;16.70;99.90
10083;DHT22;5080;48.528;8.078;2023-05-23T02:04:17;16.70;99.90
10083;DHT22;5080;48.528;8.078;2023-05-23T02:06:44;16.70;99.90
10083;DHT22;5080;48.528;8.078;2023-05-23T02:09:11;16.80;99.90
10083;DHT22;5080;48.528;8.078;2023-05-23T02:11:38;16.70;99.90
10083;DHT22;5080;48.528;8.078;2023-05-23T02:14:05;16.70;99.90
10083;DHT22;5080;48.528;8.078;2023-05-23T02:16:32;16.60;99.90
10083;DHT22;5080;48.528;8.078;2023-05-23T02:19:00;16.60;99.90
10083;DHT22;5080;48.528;8.078;2023-05-23T02:21:29;16.50;99.90
10083;DHT22;5080;48.528;8.078;2023-05-23T02:23:56;16.50;99.90
10083;DHT22;5080;48.528;8.078;2023-05-23T02:26:23;16.50;99.90
10083;DHT22;5080;48.528;8.078;2023-05-23T02:28:52;16.40;99.90
10083;DHT22;5080;48.528;8.078;2023-05-23T02:31:18;16.50;99.90
10083;DHT22;5080;48.528;8.078;2023-05-23T02:33:46;16.60;99.90
10083;DHT22;5080;48.528;8.078;2023-05-23T02:36:12;16.50;99.90
10083;DHT22;5080;48.528;8.078;2023-05-23T02:38:41;16.50;99.90
10083;DHT22;5080;48.528;8.078;2023-05-23T02:41:08;16.50;99.90
10083;DHT22;5080;48.528;8.078;2023-05-23T02:43:34;16.60;99.90
10083;DHT22;5080;48.528;8.078;2023-05-23T02:46:01;16.50;99.90
10083;DHT22;5080;48.528;8.078;2023-05-23T02:48:28;16.70;99.90
10083;DHT22;5080;48.528;8.078;2023-05-23T02:50:55;16.60;99.90
10083;DHT22;5080;48.528;8.078;2023-05-23T02:53:22;16.60;99.90
10083;DHT22;5080;48.528;8.078;2023-05-23T02:55:50;16.70;99.90
10083;DHT22;5080;48.528;8.078;2023-05-23T02:58:16;16.70;99.90
10083;DHT22;5080;48.528;8.078;2023-05-23T03:00:44;16.80;99.90
10083;DHT22;5080;48.528;8.078;2023-05-23T03:03:11;16.80;99.90
10083;DHT22;5080;48.528;8.078;2023-05-23T03:05:37;16.80;99.90
10083;DHT22;5080;48.528;8.078;2023-05-23T03:08:04;16.80;99.90
10083;DHT22;5080;48.528;8.078;2023-05-23T03:10:31;16.90;99.90
10083;DHT22;5080;48.528;8.078;2023-05-23T03:12:59;16.80;99.90
10083;DHT22;5080;48.528;8.078;2023-05-23T03:15:26;16.80;99.90
10083;DHT22;5080;48.528;8.078;2023-05-23T03:17:53;16.80;99.90
10083;DHT22;5080;48.528;8.078;2023-05-23T03:20:20;16.80;99.90
10083;DHT22;5080;48.528;8.078;2023-05-23T03:22:46;16.80;99.90
10083;DHT22;5080;48.528;8.078;2023-05-23T03:25:14;16.70;99.90
10083;DHT22;5080;48.528;8.078;2023-05-23T03:27:41;16.60;99.90
10083;DHT22;5080;48.528;8.078;2023-05-23T03:30:10;16.70;99.90
10083;DHT22;5080;48.528;8.078;2023-05-23T03:32:37;16.60;99.90
10083;DHT22;5080;48.528;8.078;2023-05-23T03:35:04;16.60;99.90
10083;DHT22;5080;48.528;8.078;2023-05-23T03:37:31;16.60;99.90
10083;DHT22;5080;48.528;8.078;2023-05-23T03:39:58;16.60;99.90
10083;DHT22;5080;48.528;8.078;2023-05-23T03:42:24;16.70;99.90
10083;DHT22;5080;48.528;8.078;2023-05-23T03:44:51;16.80;99.90
10083;DHT22;5080;48.528;8.078;2023-05-23T03:47:19;16.70;99.90
10083;DHT22;5080;48.528;8.078;2023-05-23T03:49:46;16.80;99.90
10083;DHT22;5080;48.528;8.078;2023-05-23T03:52:13;16.80;99.90
10083;DHT22;5080;48.528;8.078;2023-05-23T03:54:40;16.90;99.90
10083;DHT22;5080;48.528;8.078;2023-05-23T03:57:07;16.90;99.90
10083;DHT22;5080;48.528;8.078;2023-05-23T03:59:33;16.90;99.90
10083;DHT22;5080;48.528;8.078;2023-05-23T04:02:00;17.00;99.90
10083;DHT22;5080;48.528;8.078;2023-05-23T04:04:28;17.00;99.90
10083;DHT22;5080;48.528;8.078;2023-05-23T04:06:55;17.00;99.90
10083;DHT22;5080;48.528;8.078;2023-05-23T04:09:22;17.00;99.90
10083;DHT22;5080;48.528;8.078;2023-05-23T04:11:50;17.00;99.90
10083;DHT22;5080;48.528;8.078;2023-05-23T04:14:17;17.10;99.90
10083;DHT22;5080;48.528;8.078;2023-05-23T04:16:44;17.00;99.90
10083;DHT22;5080;48.528;8.078;2023-05-23T04:19:12;17.00;99.90
10083;DHT22;5080;48.528;8.078;2023-05-23T04:21:40;17.00;99.90
10083;DHT22;5080;48.528;8.078;2023-05-23T04:24:07;17.00;99.90
10083;DHT22;5080;48.528;8.078;2023-05-23T04:26:34;17.00;99.90
10083;DHT22;5080;48.528;8.078;2023-05-23T04:29:02;17.00;99.90
10083;DHT22;5080;48.528;8.078;2023-05-23T04:31:30;17.00;99.90
10083;DHT22;5080;48.528;8.078;2023-05-23T04:33:58;17.10;99.90
10083;DHT22;5080;48.528;8.078;2023-05-23T04:36:25;17.20;99.90
10083;DHT22;5080;48.528;8.078;2023-05-23T04:38:53;17.10;99.90
10083;DHT22;5080;48.528;8.078;2023-05-23T04:41:20;17.20;99.90
10083;DHT22;5080;48.528;8.078;2023-05-23T04:43:47;17.20;99.90
10083;DHT22;5080;48.528;8.078;2023-05-23T04:46:18;17.20;99.90
10083;DHT22;5080;48.528;8.078;2023-05-23T04:48:50;17.20;99.90
10083;DHT22;5080;48.528;8.078;2023-05-23T04:51:18;17.30;99.90
10083;DHT22;5080;48.528;8.078;2023-05-23T04:53:46;17.40;99.90
10083;DHT22;5080;48.528;8.078;2023-05-23T04:56:15;17.40;99.90
10083;DHT22;5080;48.528;8.078;2023-05-23T04:58:45;17.40;99.90
10083;DHT22;5080;48.528;8.078;2023-05-23T05:01:12;17.40;99.90
10083;DHT22;5080;48.528;8.078;2023-05-23T05:03:39;17.40;99.90
10083;DHT22;5080;48.528;8.078;2023-05-23T05:06:06;17.50;99.90
10083;DHT22;5080;48.528;8.078;2023-05-23T05:08:33;17.50;99.90
10083;DHT22;5080;48.528;8.078;2023-05-23T05:11:00;17.50;99.90
10083;DHT22;5080;48.528;8.078;2023-05-23T05:13:28;17.60;99.90
10083;DHT22;5080;48.528;8.078;2023-05-23T05:15:55;17.60;99.90
10083;DHT22;5080;48.528;8.078;2023-05-23T05:18:23;17.70;99.90
10083;DHT22;5080;48.528;8.078;2023-05-23T05:20:51;17.70;99.90
10083;DHT22;5080;48.528;8.078;2023-05-23T05:23:18;17.70;99.90
10083;DHT22;5080;48.528;8.078;2023-05-23T05:25:45;17.70;99.90
10083;DHT22;5080;48.528;8.078;2023-05-23T05:28:12;17.80;99.90
10083;DHT22;5080;48.528;8.078;2023-05-23T05:30:40;17.80;99.90
10083;DHT22;5080;48.528;8.078;2023-05-23T05:33:07;17.90;99.90
10083;DHT22;5080;48.528;8.078;2023-05-23T05:35:34;17.90;99.90
10083;DHT22;5080;48.528;8.078;2023-05-23T05:38:03;17.90;99.90
10083;DHT22;5080;48.528;8.078;2023-05-23T05:40:30;18.00;99.90
10083;DHT22;5080;48.528;8.078;2023-05-23T05:42:57;18.10;99.90
10083;DHT22;5080;48.528;8.078;2023-05-23T05:45:23;18.10;99.90
10083;DHT22;5080;48.528;8.078;2023-05-23T05:47:52;18.20;99.90
10083;DHT22;5080;48.528;8.078;2023-05-23T05:50:18;18.30;99.90
10083;DHT22;5080;48.528;8.078;2023-05-23T05:52:45;18.40;99.90
10083;DHT22;5080;48.528;8.078;2023-05-23T05:55:12;18.50;99.90
10083;DHT22;5080;48.528;8.078;2023-05-23T05:57:39;18.60;99.90
10083;DHT22;5080;48.528;8.078;2023-05-23T06:00:08;18.70;99.90
10083;DHT22;5080;48.528;8.078;2023-05-23T06:02:38;18.90;99.90
10083;DHT22;5080;48.528;8.078;2023-05-23T06:05:07;19.10;99.90
10083;DHT22;5080;48.528;8.078;2023-05-23T06:07:36;19.10;99.90
10083;DHT22;5080;48.528;8.078;2023-05-23T06:10:04;19.30;99.90
10083;DHT22;5080;48.528;8.078;2023-05-23T06:12:31;19.40;99.90
10083;DHT22;5080;48.528;8.078;2023-05-23T06:14:58;19.60;99.90
10083;DHT22;5080;48.528;8.078;2023-05-23T06:17:25;19.70;99.90
10083;DHT22;5080;48.528;8.078;2023-05-23T06:19:52;19.80;99.90
10083;DHT22;5080;48.528;8.078;2023-05-23T06:22:20;19.90;99.90
10083;DHT22;5080;48.528;8.078;2023-05-23T06:24:47;20.10;99.90
10083;DHT22;5080;48.528;8.078;2023-05-23T06:27:13;20.20;99.90
10083;DHT22;5080;48.528;8.078;2023-05-23T06:29:40;20.40;99.90
10083;DHT22;5080;48.528;8.078;2023-05-23T06:32:07;20.40;99.90
10083;DHT22;5080;48.528;8.078;2023-05-23T06:34:34;20.40;99.90
10083;DHT22;5080;48.528;8.078;2023-05-23T06:37:01;20.40;99.90
10083;DHT22;5080;48.528;8.078;2023-05-23T06:39:29;20.10;99.90
10083;DHT22;5080;48.528;8.078;2023-05-23T06:41:56;19.90;99.90
10083;DHT22;5080;48.528;8.078;2023-05-23T06:44:22;19.90;99.90
10083;DHT22;5080;48.528;8.078;2023-05-23T06:46:49;19.80;99.90
10083;DHT22;5080;48.528;8.078;2023-05-23T06:49:21;19.70;99.90
10083;DHT22;5080;48.528;8.078;2023-05-23T06:51:48;19.70;99.90
10083;DHT22;5080;48.528;8.078;2023-05-23T06:54:15;19.60;99.90
10083;DHT22;5080;48.528;8.078;2023-05-23T06:56:43;19.60;99.90
10083;DHT22;5080;48.528;8.078;2023-05-23T06:59:10;19.60;99.90
10083;DHT22;5080;48.528;8.078;2023-05-23T07:01:37;19.50;99.90
10083;DHT22;5080;48.528;8.078;2023-05-23T07:04:04;19.50;99.90
10083;DHT22;5080;48.528;8.078;2023-05-23T07:06:31;19.40;99.90
10083;DHT22;5080;48.528;8.078;2023-05-23T07:09:00;19.50;99.90
10083;DHT22;5080;48.528;8.078;2023-05-23T07:11:26;19.50;99.90
10083;DHT22;5080;48.528;8.078;2023-05-23T07:13:54;19.60;99.90
10083;DHT22;5080;48.528;8.078;2023-05-23T07:16:21;19.70;99.90
10083;DHT22;5080;48.528;8.078;2023-05-23T07:18:48;19.80;99.90
10083;DHT22;5080;48.528;8.078;2023-05-23T07:21:15;19.90;99.90
10083;DHT22;5080;48.528;8.078;2023-05-23T07:23:42;20.00;99.90
10083;DHT22;5080;48.528;8.078;2023-05-23T07:26:08;20.10;99.90
10083;DHT22;5080;48.528;8.078;2023-05-23T07:28:36;20.10;99.90
10083;DHT22;5080;48.528;8.078;2023-05-23T07:31:04;20.20;99.90
10083;DHT22;5080;48.528;8.078;2023-05-23T07:33:33;20.20;99.90
10083;DHT22;5080;48.528;8.078;2023-05-23T07:36:00;20.10;99.90
10083;DHT22;5080;48.528;8.078;2023-05-23T07:38:27;20.00;99.90
10083;DHT22;5080;48.528;8.078;2023-05-23T07:40:54;20.00;99.90
10083;DHT22;5080;48.528;8.078;2023-05-23T07:43:21;19.90;99.90
10083;DHT22;5080;48.528;8.078;2023-05-23T07:45:48;19.80;99.90
10083;DHT22;5080;48.528;8.078;2023-05-23T07:48:16;19.90;99.90
10083;DHT22;5080;48.528;8.078;2023-05-23T07:50:43;20.00;99.90
10083;DHT22;5080;48.528;8.078;2023-05-23T07:53:10;20.20;99.90
10083;DHT22;5080;48.528;8.078;2023-05-23T07:55:36;20.20;99.90
10083;DHT22;5080;48.528;8.078;2023-05-23T07:58:03;20.20;99.90
10083;DHT22;5080;48.528;8.078;2023-05-23T08:00:30;20.30;99.90
10083;DHT22;5080;48.528;8.078;2023-05-23T08:02:57;20.30;99.90
10083;DHT22;5080;48.528;8.078;2023-05-23T08:05:25;20.20;99.90
10083;DHT22;5080;48.528;8.078;2023-05-23T08:07:52;20.30;99.90
10083;DHT22;5080;48.528;8.078;2023-05-23T08:10:19;20.30;99.90
10083;DHT22;5080;48.528;8.078;2023-05-23T08:12:46;20.30;99.90
10083;DHT22;5080;48.528;8.078;2023-05-23T08:15:13;20.30;99.90
10083;DHT22;5080;48.528;8.078;2023-05-23T08:17:40;20.50;99.90
10083;DHT22;5080;48.528;8.078;2023-05-23T08:20:07;20.70;99.90
10083;DHT22;5080;48.528;8.078;2023-05-23T08:22:37;20.80;99.90
10083;DHT22;5080;48.528;8.078;2023-05-23T08:25:05;20.80;99.90
10083;DHT22;5080;48.528;8.078;2023-05-23T08:27:32;20.60;99.90
10083;DHT22;5080;48.528;8.078;2023-05-23T08:30:00;20.50;99.90
10083;DHT22;5080;48.528;8.078;2023-05-23T08:32:28;20.50;99.90
10083;DHT22;5080;48.528;8.078;2023-05-23T08:34:55;20.40;99.90
10083;DHT22;5080;48.528;8.078;2023-05-23T08:37:21;20.40;99.90
10083;DHT22;5080;48.528;8.078;2023-05-23T08:39:50;20.50;99.90
10083;DHT22;5080;48.528;8.078;2023-05-23T08:42:17;20.60;99.90
10083;DHT22;5080;48.528;8.078;2023-05-23T08:44:44;20.70;99.90
10083;DHT22;5080;48.528;8.078;2023-05-23T08:47:13;20.80;99.90
10083;DHT22;5080;48.528;8.078;2023-05-23T08:49:42;20.90;99.90
10083;DHT22;5080;48.528;8.078;2023-05-23T08:52:11;20.80;99.90
10083;DHT22;5080;48.528;8.078;2023-05-23T08:54:38;20.90;99.90
10083;DHT22;5080;48.528;8.078;2023-05-23T08:57:08;21.00;99.90
10083;DHT22;5080;48.528;8.078;2023-05-23T08:59:35;20.90;99.90
10083;DHT22;5080;48.528;8.078;2023-05-23T09:02:06;20.90;99.90
10083;DHT22;5080;48.528;8.078;2023-05-23T09:04:34;20.80;99.90
10083;DHT22;5080;48.528;8.078;2023-05-23T09:07:01;20.80;99.90
10083;DHT22;5080;48.528;8.078;2023-05-23T09:09:29;20.80;99.90
10083;DHT22;5080;48.528;8.078;2023-05-23T09:11:57;20.90;99.90
10083;DHT22;5080;48.528;8.078;2023-05-23T09:14:26;21.00;99.90
10083;DHT22;5080;48.528;8.078;2023-05-23T09:16:59;21.00;99.90
10083;DHT22;5080;48.528;8.078;2023-05-23T09:19:26;21.00;99.90
10083;DHT22;5080;48.528;8.078;2023-05-23T09:21:53;21.00;99.90
10083;DHT22;5080;48.528;8.078;2023-05-23T09:24:20;21.10;99.90
10083;DHT22;5080;48.528;8.078;2023-05-23T09:26:48;21.20;99.90
10083;DHT22;5080;48.528;8.078;2023-05-23T09:29:18;21.00;99.90
10083;DHT22;5080;48.528;8.078;2023-05-23T09:31:47;20.90;99.90
10083;DHT22;5080;48.528;8.078;2023-05-23T09:34:14;20.80;99.90
10083;DHT22;5080;48.528;8.078;2023-05-23T09:36:40;20.80;99.90
10083;DHT22;5080;48.528;8.078;2023-05-23T09:39:11;20.80;99.90
10083;DHT22;5080;48.528;8.078;2023-05-23T09:41:38;20.80;99.90
10083;DHT22;5080;48.528;8.078;2023-05-23T09:44:07;20.70;99.90
10083;DHT22;5080;48.528;8.078;2023-05-23T09:46:35;20.80;99.90
10083;DHT22;5080;48.528;8.078;2023-05-23T09:49:14;21.00;99.90
10083;DHT22;5080;48.528;8.078;2023-05-23T09:51:41;21.00;99.90
10083;DHT22;5080;48.528;8.078;2023-05-23T09:54:08;21.00;99.90
10083;DHT22;5080;48.528;8.078;2023-05-23T09:56:39;21.00;99.90
10083;DHT22;5080;48.528;8.078;2023-05-23T09:59:10;21.20;99.90
10083;DHT22;5080;48.528;8.078;2023-05-23T10:01:40;21.10;99.90
10083;DHT22;5080;48.528;8.078;2023-05-23T10:04:08;21.50;99.90
10083;DHT22;5080;48.528;8.078;2023-05-23T10:06:40;21.80;99.90
10083;DHT22;5080;48.528;8.078;2023-05-23T10:09:12;21.80;99.90
10083;DHT22;5080;48.528;8.078;2023-05-23T10:14:44;21.90;99.90
10083;DHT22;5080;48.528;8.078;2023-05-23T10:17:18;22.00;99.90
10083;DHT22;5080;48.528;8.078;2023-05-23T10:19:55;22.10;99.90
10083;DHT22;5080;48.528;8.078;2023-05-23T10:22:24;22.20;99.90
10083;DHT22;5080;48.528;8.078;2023-05-23T10:24:52;22.00;99.90
10083;DHT22;5080;48.528;8.078;2023-05-23T10:27:19;21.90;99.90
10083;DHT22;5080;48.528;8.078;2023-05-23T10:29:45;21.80;99.90
10083;DHT22;5080;48.528;8.078;2023-05-23T10:32:13;22.00;99.90
10083;DHT22;5080;48.528;8.078;2023-05-23T10:34:43;22.30;99.90
10083;DHT22;5080;48.528;8.078;2023-05-23T10:37:17;22.10;99.90
10083;DHT22;5080;48.528;8.078;2023-05-23T10:39:56;22.00;99.90
10083;DHT22;5080;48.528;8.078;2023-05-23T10:42:33;21.90;99.90
10083;DHT22;5080;48.528;8.078;2023-05-23T10:45:14;21.80;99.90
10083;DHT22;5080;48.528;8.078;2023-05-23T10:47:41;22.00;99.90
10083;DHT22;5080;48.528;8.078;2023-05-23T10:50:11;22.00;99.90
10083;DHT22;5080;48.528;8.078;2023-05-23T10:52:41;21.90;99.90
10083;DHT22;5080;48.528;8.078;2023-05-23T10:55:13;22.00;99.90
10083;DHT22;5080;48.528;8.078;2023-05-23T10:57:42;22.10;99.90
10083;DHT22;5080;48.528;8.078;2023-05-23T11:00:14;22.20;99.90
10083;DHT22;5080;48.528;8.078;2023-05-23T11:02:53;22.10;99.90
10083;DHT22;5080;48.528;8.078;2023-05-23T11:05:21;22.00;99.90
10083;DHT22;5080;48.528;8.078;2023-05-23T11:08:09;22.00;99.90
10083;DHT22;5080;48.528;8.078;2023-05-23T11:10:55;21.90;99.90
10083;DHT22;5080;48.528;8.078;2023-05-23T11:13:24;21.70;99.90
10083;DHT22;5080;48.528;8.078;2023-05-23T11:15:51;21.70;99.90
10083;DHT22;5080;48.528;8.078;2023-05-23T11:18:22;21.60;99.90
10083;DHT22;5080;48.528;8.078;2023-05-23T11:20:52;21.60;99.90
10083;DHT22;5080;48.528;8.078;2023-05-23T11:23:21;21.60;99.90
10083;DHT22;5080;48.528;8.078;2023-05-23T11:25:49;21.60;99.90
10083;DHT22;5080;48.528;8.078;2023-05-23T11:28:17;21.70;99.90
10083;DHT22;5080;48.528;8.078;2023-05-23T11:30:46;21.80;99.90
10083;DHT22;5080;48.528;8.078;2023-05-23T11:33:15;21.80;99.90
10083;DHT22;5080;48.528;8.078;2023-05-23T11:35:43;21.80;99.90
10083;DHT22;5080;48.528;8.078;2023-05-23T11:38:11;21.90;99.90
10083;DHT22;5080;48.528;8.078;2023-05-23T11:40:42;21.80;99.90
10083;DHT22;5080;48.528;8.078;2023-05-23T11:43:10;21.80;99.90
10083;DHT22;5080;48.528;8.078;2023-05-23T11:45:38;21.80;99.90
10083;DHT22;5080;48.528;8.078;2023-05-23T11:48:07;21.70;99.90
10083;DHT22;5080;48.528;8.078;2023-05-23T11:50:42;21.60;99.90
10083;DHT22;5080;48.528;8.078;2023-05-23T11:53:09;21.60;99.90
10083;DHT22;5080;48.528;8.078;2023-05-23T11:55:40;21.70;99.90
10083;DHT22;5080;48.528;8.078;2023-05-23T11:58:13;21.70;99.90
10083;DHT22;5080;48.528;8.078;2023-05-23T12:00:44;21.60;99.90
10083;DHT22;5080;48.528;8.078;2023-05-23T12:03:11;21.70;99.90
10083;DHT22;5080;48.528;8.078;2023-05-23T12:05:38;21.90;99.90
10083;DHT22;5080;48.528;8.078;2023-05-23T12:08:05;22.10;99.90
10083;DHT22;5080;48.528;8.078;2023-05-23T12:10:32;22.30;99.90
10083;DHT22;5080;48.528;8.078;2023-05-23T12:13:00;22.20;99.90
10083;DHT22;5080;48.528;8.078;2023-05-23T12:15:29;21.90;99.90
10083;DHT22;5080;48.528;8.078;2023-05-23T12:17:57;21.80;99.90
10083;DHT22;5080;48.528;8.078;2023-05-23T12:20:25;21.80;99.90
10083;DHT22;5080;48.528;8.078;2023-05-23T12:22:53;21.80;99.90
10083;DHT22;5080;48.528;8.078;2023-05-23T12:25:20;21.90;99.90
10083;DHT22;5080;48.528;8.078;2023-05-23T12:27:47;21.90;99.90
10083;DHT22;5080;48.528;8.078;2023-05-23T12:30:16;22.00;99.90
10083;DHT22;5080;48.528;8.078;2023-05-23T12:32:44;22.00;99.90
10083;DHT22;5080;48.528;8.078;2023-05-23T12:35:13;22.20;99.90
10083;DHT22;5080;48.528;8.078;2023-05-23T12:37:40;22.20;99.90
10083;DHT22;5080;48.528;8.078;2023-05-23T12:40:12;22.30;99.90
10083;DHT22;5080;48.528;8.078;2023-05-23T12:42:49;22.30;99.90
10083;DHT22;5080;48.528;8.078;2023-05-23T12:45:18;22.50;99.90
10083;DHT22;5080;48.528;8.078;2023-05-23T12:47:45;22.60;99.90
10083;DHT22;5080;48.528;8.078;2023-05-23T12:50:12;22.80;99.90
10083;DHT22;5080;48.528;8.078;2023-05-23T12:52:39;22.80;99.90
10083;DHT22;5080;48.528;8.078;2023-05-23T12:55:07;22.70;99.90
10083;DHT22;5080;48.528;8.078;2023-05-23T12:57:34;22.60;99.90
10083;DHT22;5080;48.528;8.078;2023-05-23T13:00:01;22.70;99.90
10083;DHT22;5080;48.528;8.078;2023-05-23T13:02:30;22.60;99.90
10083;DHT22;5080;48.528;8.078;2023-05-23T13:04:57;22.70;99.90
10083;DHT22;5080;48.528;8.078;2023-05-23T13:07:24;22.60;99.90
10083;DHT22;5080;48.528;8.078;2023-05-23T13:09:51;22.60;99.90
10083;DHT22;5080;48.528;8.078;2023-05-23T13:12:17;22.40;99.90
10083;DHT22;5080;48.528;8.078;2023-05-23T13:14:44;22.40;99.90
10083;DHT22;5080;48.528;8.078;2023-05-23T13:17:11;22.30;99.90
10083;DHT22;5080;48.528;8.078;2023-05-23T13:19:39;22.40;99.90
10083;DHT22;5080;48.528;8.078;2023-05-23T13:22:07;22.50;99.90
10083;DHT22;5080;48.528;8.078;2023-05-23T13:24:35;22.80;99.90
10083;DHT22;5080;48.528;8.078;2023-05-23T13:27:02;23.00;99.90
10083;DHT22;5080;48.528;8.078;2023-05-23T13:29:29;23.00;99.90
10083;DHT22;5080;48.528;8.078;2023-05-23T13:31:56;23.00;99.90
10083;DHT22;5080;48.528;8.078;2023-05-23T13:34:23;22.90;99.90
10083;DHT22;5080;48.528;8.078;2023-05-23T13:36:52;23.00;99.90
10083;DHT22;5080;48.528;8.078;2023-05-23T13:39:19;23.00;99.90
10083;DHT22;5080;48.528;8.078;2023-05-23T13:41:47;22.80;99.90
10083;DHT22;5080;48.528;8.078;2023-05-23T13:44:14;22.90;99.90
10083;DHT22;5080;48.528;8.078;2023-05-23T13:46:41;22.70;99.90
10083;DHT22;5080;48.528;8.078;2023-05-23T13:49:08;22.80;99.90
10083;DHT22;5080;48.528;8.078;2023-05-23T13:51:34;22.90;99.90
10083;DHT22;5080;48.528;8.078;2023-05-23T13:54:03;23.00;99.90
10083;DHT22;5080;48.528;8.078;2023-05-23T13:56:30;23.10;99.90
10083;DHT22;5080;48.528;8.078;2023-05-23T13:58:58;22.90;99.90
10083;DHT22;5080;48.528;8.078;2023-05-23T14:01:25;22.70;99.90
10083;DHT22;5080;48.528;8.078;2023-05-23T14:03:52;22.50;99.90
10083;DHT22;5080;48.528;8.078;2023-05-23T14:06:18;22.50;99.90
10083;DHT22;5080;48.528;8.078;2023-05-23T14:08:45;22.60;99.90
10083;DHT22;5080;48.528;8.078;2023-05-23T14:11:13;22.70;99.90
10083;DHT22;5080;48.528;8.078;2023-05-23T14:13:40;22.60;99.90
10083;DHT22;5080;48.528;8.078;2023-05-23T14:16:07;22.70;99.90
10083;DHT22;5080;48.528;8.078;2023-05-23T14:18:34;22.80;99.90
10083;DHT22;5080;48.528;8.078;2023-05-23T14:21:01;23.00;99.90
10083;DHT22;5080;48.528;8.078;2023-05-23T14:23:27;22.80;99.90
10083;DHT22;5080;48.528;8.078;2023-05-23T14:25:54;22.80;99.90
10083;DHT22;5080;48.528;8.078;2023-05-23T14:28:22;22.60;99.90
10083;DHT22;5080;48.528;8.078;2023-05-23T14:30:49;22.50;99.90
10083;DHT22;5080;48.528;8.078;2023-05-23T14:33:16;22.60;99.90
10083;DHT22;5080;48.528;8.078;2023-05-23T14:35:43;22.60;99.90
10083;DHT22;5080;48.528;8.078;2023-05-23T14:38:09;22.70;99.90
10083;DHT22;5080;48.528;8.078;2023-05-23T14:40:36;22.80;99.90
10083;DHT22;5080;48.528;8.078;2023-05-23T14:43:03;22.90;99.90
10083;DHT22;5080;48.528;8.078;2023-05-23T14:45:32;22.90;99.90
10083;DHT22;5080;48.528;8.078;2023-05-23T14:47:58;22.90;99.90
10083;DHT22;5080;48.528;8.078;2023-05-23T14:50:25;22.70;99.90
10083;DHT22;5080;48.528;8.078;2023-05-23T14:52:52;22.70;99.90
10083;DHT22;5080;48.528;8.078;2023-05-23T14:55:19;22.70;99.90
10083;DHT22;5080;48.528;8.078;2023-05-23T14:57:46;22.60;99.90
10083;DHT22;5080;48.528;8.078;2023-05-23T15:00:13;22.60;99.90
10083;DHT22;5080;48.528;8.078;2023-05-23T15:02:42;22.60;99.90
10083;DHT22;5080;48.528;8.078;2023-05-23T15:05:09;22.60;99.90
10083;DHT22;5080;48.528;8.078;2023-05-23T15:07:36;22.70;99.90
10083;DHT22;5080;48.528;8.078;2023-05-23T15:10:03;22.70;99.90
10083;DHT22;5080;48.528;8.078;2023-05-23T15:12:31;22.60;99.90
10083;DHT22;5080;48.528;8.078;2023-05-23T15:14:57;22.50;99.90
10083;DHT22;5080;48.528;8.078;2023-05-23T15:17:28;22.40;99.90
10083;DHT22;5080;48.528;8.078;2023-05-23T15:19:56;22.40;99.90
10083;DHT22;5080;48.528;8.078;2023-05-23T15:22:23;22.40;99.90
10083;DHT22;5080;48.528;8.078;2023-05-23T15:24:50;22.50;99.90
10083;DHT22;5080;48.528;8.078;2023-05-23T15:27:17;22.50;99.90
10083;DHT22;5080;48.528;8.078;2023-05-23T15:29:47;22.50;99.90
10083;DHT22;5080;48.528;8.078;2023-05-23T15:32:13;22.60;99.90
10083;DHT22;5080;48.528;8.078;2023-05-23T15:34:40;22.70;99.90
10083;DHT22;5080;48.528;8.078;2023-05-23T15:37:08;22.70;99.90
10083;DHT22;5080;48.528;8.078;2023-05-23T15:39:35;22.70;99.90
10083;DHT22;5080;48.528;8.078;2023-05-23T15:42:02;22.70;99.90
10083;DHT22;5080;48.528;8.078;2023-05-23T15:44:29;22.70;99.90
10083;DHT22;5080;48.528;8.078;2023-05-23T15:46:56;22.60;99.90
10083;DHT22;5080;48.528;8.078;2023-05-23T15:49:23;22.60;99.90
10083;DHT22;5080;48.528;8.078;2023-05-23T15:51:50;22.60;99.90